Portada
METAR-TAF:

METAR-TAF

Aeroports :

Diego Garcia, Territori Britànic de l'Oceà Índic

latitud: 07-18S, longitud: 072-24E, altitud: 1 m

Observació

L'informe es va fer fa 45 minuts, a les 04:55 UTC
Vent 10 kt del Est/Sud-Est
Temperatura 31°C
Humitat 75%
Pressió 1012 hPa
Visibilitat 10 km o més
Escasses núvols a una alçada de 2100 ft
Núvols disperses a una alçada de 25000 ft

METAR: FJDG 220455Z 12010KT 9999 FEW021 SCT250 31/26 A2988 RMK SLP115 T03050263

Hora: 11:40 (05:40 UTC)

Pronòstic

L'informe es va fer fa 4 hores i 40 minuts, a les 01:00 UTC
Pronòstic vàlid del 22 a les 01 UTC al 23 a les 07 UTC
Vent 9 kt del Est/Sud-Est
Visibilitat 10 km o més
Núvols disperses a una alçada de 2000 ft
Núvols disperses a una alçada de 25000 ft
Temporalment
l' 22 a les 12 UTC al 22 a les 18 UTC
Visibilitat: 9000 m
Cel ennuvolat a una alçada de 2000 ft
xàfecs de pluja

TAF: FJDG 220100Z 2201/2307 11009KT 9999 SCT020 SCT250 QNH2980INS TEMPO 2212/2218 9000 -SHRA BKN020 TX32/2207Z TN26/2223Z

Observacions i pronòstics meteorològics de més de 4000 aeroports (METAR i TAF).

Les estacions disponibles són els punts grocs i vermells al mapa.

Posi el ratolí al punt desitjat per veure el nom de l'estació.

Feu clic per veure les observacions i els pronòstics meteorològics.

Per canviar el mapa: feu clic els botons verds amb una creu de color negre per apropar; al botó verd amb un guió per allunyar la imatge; o en les fletxes verdes per a mapes adjacents.


METAR-TAF: